createdAt,value
2018-03-03T00:00:23.724Z,78.90
2018-03-03T00:02:56.337Z,79.10
2018-03-03T00:05:29.135Z,79.10
2018-03-03T00:08:01.692Z,79.00
2018-03-03T00:10:34.135Z,78.60
2018-03-03T00:13:07.459Z,78.70
2018-03-03T00:15:39.865Z,78.90
2018-03-03T00:18:13.070Z,78.70
2018-03-03T00:20:45.981Z,78.80
2018-03-03T00:23:18.411Z,78.80
2018-03-03T00:25:51.024Z,78.60
2018-03-03T00:28:23.547Z,78.80
2018-03-03T00:30:56.077Z,78.70
2018-03-03T00:33:29.428Z,78.60
2018-03-03T00:36:02.599Z,78.70
2018-03-03T00:38:35.250Z,78.60
2018-03-03T00:41:07.666Z,78.70
2018-03-03T00:43:40.078Z,79.50
2018-03-03T00:46:12.567Z,79.00
2018-03-03T00:48:45.115Z,79.00
2018-03-03T00:51:17.571Z,79.00
2018-03-03T00:53:49.959Z,79.10
2018-03-03T00:56:22.447Z,79.00
2018-03-03T00:58:55.644Z,78.90
2018-03-03T01:01:28.205Z,79.00
2018-03-03T01:04:00.580Z,78.90
2018-03-03T01:06:32.939Z,79.00
2018-03-03T01:09:05.310Z,78.90
2018-03-03T01:11:37.919Z,79.20
2018-03-03T01:14:10.538Z,79.00
2018-03-03T01:16:42.914Z,79.40
2018-03-03T01:19:15.976Z,79.40
2018-03-03T01:21:49.592Z,79.40
2018-03-03T01:24:22.320Z,79.30
2018-03-03T01:26:54.908Z,79.50
2018-03-03T01:29:27.431Z,79.10
2018-03-03T01:31:59.799Z,79.20
2018-03-03T01:34:32.283Z,79.10
2018-03-03T01:37:04.949Z,78.90
2018-03-03T01:39:37.406Z,78.90
2018-03-03T01:42:10.024Z,78.80
2018-03-03T01:44:42.414Z,78.80
2018-03-03T01:47:14.845Z,78.80
2018-03-03T01:49:48.017Z,79.70
2018-03-03T01:52:20.778Z,78.70
2018-03-03T01:54:53.195Z,78.70
2018-03-03T01:57:27.323Z,78.70
2018-03-03T02:00:00.607Z,79.30
2018-03-03T02:02:33.382Z,78.40
2018-03-03T02:05:06.731Z,78.30
2018-03-03T02:07:39.271Z,78.30
2018-03-03T02:10:11.805Z,78.60
2018-03-03T02:12:44.309Z,78.00
2018-03-03T02:15:16.802Z,78.10
2018-03-03T02:17:49.298Z,78.00
2018-03-03T02:20:22.461Z,78.10
2018-03-03T02:22:55.021Z,78.10
2018-03-03T02:25:28.189Z,77.90
2018-03-03T02:28:00.807Z,77.80
2018-03-03T02:30:34.230Z,78.20
2018-03-03T02:33:08.063Z,78.20
2018-03-03T02:35:40.826Z,78.00
2018-03-03T02:38:13.920Z,78.40
2018-03-03T02:40:46.672Z,78.20
2018-03-03T02:43:19.225Z,78.40
2018-03-03T02:45:52.659Z,78.60
2018-03-03T02:48:25.489Z,78.40
2018-03-03T02:50:57.959Z,78.50
2018-03-03T02:53:30.469Z,78.30
2018-03-03T02:56:03.701Z,78.30
2018-03-03T02:58:37.129Z,78.20
2018-03-03T03:01:10.026Z,78.30
2018-03-03T03:03:42.503Z,78.10
2018-03-03T03:06:15.741Z,78.10
2018-03-03T03:08:48.390Z,78.30
2018-03-03T03:11:20.907Z,78.10
2018-03-03T03:13:54.131Z,77.80
2018-03-03T03:16:26.818Z,78.00
2018-03-03T03:18:59.315Z,78.00
2018-03-03T03:21:31.786Z,77.90
2018-03-03T03:24:04.192Z,77.80
2018-03-03T03:26:37.297Z,77.60
2018-03-03T03:29:09.975Z,77.60
2018-03-03T03:31:42.424Z,77.80
2018-03-03T03:34:15.656Z,77.70
2018-03-03T03:36:48.338Z,77.50
2018-03-03T03:39:20.885Z,77.50
2018-03-03T03:41:53.448Z,77.70
2018-03-03T03:44:25.858Z,77.70
2018-03-03T03:46:58.481Z,77.30
2018-03-03T03:49:30.995Z,77.30
2018-03-03T03:52:04.349Z,77.60
2018-03-03T03:54:36.897Z,77.30
2018-03-03T03:57:09.358Z,77.50
2018-03-03T03:59:41.897Z,77.40
2018-03-03T04:02:14.576Z,77.60
2018-03-03T04:04:47.820Z,77.50
2018-03-03T04:07:20.523Z,77.50
2018-03-03T04:09:52.958Z,77.50
2018-03-03T04:12:26.032Z,77.60
2018-03-03T04:14:58.819Z,77.40
2018-03-03T04:17:32.182Z,77.60
2018-03-03T04:20:04.672Z,77.30
2018-03-03T04:22:37.179Z,77.70
2018-03-03T04:25:09.580Z,77.50
2018-03-03T04:27:42.798Z,77.60
2018-03-03T04:30:15.447Z,77.70
2018-03-03T04:32:47.973Z,77.40
2018-03-03T04:35:20.507Z,77.10
2018-03-03T04:37:53.767Z,77.10
2018-03-03T04:40:27.682Z,77.20
2018-03-03T04:43:00.446Z,77.10
2018-03-03T04:45:32.922Z,77.20
2018-03-03T04:48:06.071Z,77.20
2018-03-03T04:50:38.968Z,77.00
2018-03-03T04:53:11.578Z,77.30
2018-03-03T04:55:44.163Z,77.50
2018-03-03T04:58:17.495Z,77.50
2018-03-03T05:00:53.378Z,77.40
2018-03-03T05:03:26.061Z,77.60
2018-03-03T05:06:04.466Z,77.60
2018-03-03T05:08:38.003Z,77.80
2018-03-03T05:11:12.545Z,77.70
2018-03-03T05:13:44.973Z,78.20
2018-03-03T05:16:19.596Z,78.40
2018-03-03T05:18:58.550Z,78.20
2018-03-03T05:21:37.891Z,78.50
2018-03-03T05:24:16.584Z,78.30
2018-03-03T05:26:55.039Z,78.70
2018-03-03T05:29:34.247Z,78.70
2018-03-03T05:35:30.532Z,78.80
2018-03-03T05:38:09.447Z,79.00
2018-03-03T05:44:05.178Z,78.90
2018-03-03T05:46:44.859Z,78.90
2018-03-03T05:49:23.457Z,78.70
2018-03-03T05:55:14.862Z,78.80
2018-03-03T05:57:55.473Z,78.60
2018-03-03T06:03:33.142Z,78.80
2018-03-03T06:09:09.156Z,78.20
2018-03-03T06:11:41.837Z,78.90
2018-03-03T06:14:14.567Z,79.00
2018-03-03T06:16:49.018Z,78.90
2018-03-03T06:19:31.754Z,78.80
2018-03-03T06:22:05.809Z,78.90
2018-03-03T06:24:38.405Z,79.00
2018-03-03T06:27:11.635Z,78.90
2018-03-03T06:29:44.488Z,79.20
2018-03-03T06:32:17.671Z,78.90
2018-03-03T06:34:50.407Z,78.90
2018-03-03T06:37:23.090Z,78.50
2018-03-03T06:39:56.636Z,78.10
2018-03-03T06:42:29.324Z,78.00
2018-03-03T06:45:01.725Z,77.70
2018-03-03T06:47:34.279Z,77.90
2018-03-03T06:50:06.666Z,77.60
2018-03-03T06:52:39.287Z,77.40
2018-03-03T06:55:11.898Z,77.00
2018-03-03T06:57:45.124Z,76.00
2018-03-03T07:00:18.169Z,76.00
2018-03-03T07:02:50.765Z,76.10
2018-03-03T07:05:23.394Z,76.40
2018-03-03T07:07:56.752Z,75.60
2018-03-03T07:10:29.659Z,75.50
2018-03-03T07:13:02.751Z,74.70
2018-03-03T07:15:36.092Z,74.50
2018-03-03T07:18:09.423Z,72.90
2018-03-03T07:20:42.309Z,72.90
2018-03-03T07:23:14.845Z,72.60
2018-03-03T07:25:47.194Z,71.90
2018-03-03T07:28:19.718Z,71.90
2018-03-03T07:30:52.280Z,71.90
2018-03-03T07:33:25.051Z,72.30
2018-03-03T07:35:57.574Z,71.10
2018-03-03T07:38:30.865Z,70.70
2018-03-03T07:41:03.529Z,70.70
2018-03-03T07:43:36.777Z,69.70
2018-03-03T07:46:09.754Z,68.70
2018-03-03T07:48:42.271Z,68.40
2018-03-03T07:51:14.915Z,67.80
2018-03-03T07:53:47.508Z,67.40
2018-03-03T07:56:20.753Z,67.60
2018-03-03T07:58:57.375Z,67.60
2018-03-03T08:01:29.923Z,67.80
2018-03-03T08:04:02.400Z,67.60
2018-03-03T08:06:35.170Z,67.40
2018-03-03T08:09:08.620Z,67.10
2018-03-03T08:11:41.945Z,66.40
2018-03-03T08:14:15.425Z,66.50
2018-03-03T08:16:48.039Z,66.50
2018-03-03T08:19:20.537Z,66.20
2018-03-03T08:21:52.838Z,66.40
2018-03-03T08:24:25.416Z,66.80
2018-03-03T08:26:57.922Z,66.30
2018-03-03T08:29:30.484Z,66.20
2018-03-03T08:32:02.909Z,66.20
2018-03-03T08:34:36.864Z,65.30
2018-03-03T08:37:09.877Z,65.20
2018-03-03T08:39:42.443Z,64.30
2018-03-03T08:42:15.871Z,63.50
2018-03-03T08:44:48.281Z,63.40
2018-03-03T08:47:20.753Z,63.60
2018-03-03T08:49:54.235Z,64.00
2018-03-03T08:52:27.129Z,63.70
2018-03-03T08:54:59.572Z,63.50
2018-03-03T08:57:32.123Z,64.10
2018-03-03T09:00:04.812Z,64.90
2018-03-03T09:02:37.283Z,65.00
2018-03-03T09:05:11.128Z,65.80
2018-03-03T09:07:44.096Z,65.80
2018-03-03T09:10:16.818Z,66.10
2018-03-03T09:12:56.283Z,65.30
2018-03-03T09:15:28.850Z,65.40
2018-03-03T09:18:02.009Z,65.80
2018-03-03T09:20:34.767Z,65.10
2018-03-03T09:23:07.146Z,64.80
2018-03-03T09:25:39.906Z,64.90
2018-03-03T09:28:13.061Z,65.30
2018-03-03T09:30:46.424Z,65.00
2018-03-03T09:33:19.321Z,65.00
2018-03-03T09:35:53.118Z,65.20
2018-03-03T09:38:26.289Z,65.60
2018-03-03T09:40:58.803Z,65.30
2018-03-03T09:43:31.181Z,65.30
2018-03-03T09:46:04.454Z,65.40
2018-03-03T09:48:37.241Z,64.70
2018-03-03T09:51:10.526Z,64.40
2018-03-03T09:53:43.131Z,64.50
2018-03-03T09:56:15.511Z,64.30
2018-03-03T09:58:48.118Z,64.20
2018-03-03T10:01:20.792Z,64.30
2018-03-03T10:03:53.193Z,64.70
2018-03-03T10:06:25.841Z,64.40
2018-03-03T10:08:58.287Z,64.60
2018-03-03T10:11:31.654Z,65.80
2018-03-03T10:14:05.086Z,65.70
2018-03-03T10:16:38.084Z,65.80
2018-03-03T10:19:11.471Z,66.10
2018-03-03T10:21:44.643Z,65.60
2018-03-03T10:24:18.097Z,65.10
2018-03-03T10:26:50.979Z,65.10
2018-03-03T10:29:24.302Z,65.70
2018-03-03T10:31:57.042Z,65.70
2018-03-03T10:34:29.522Z,66.50
2018-03-03T10:37:02.082Z,66.70
2018-03-03T10:39:35.100Z,67.60
2018-03-03T10:42:08.147Z,68.10
2018-03-03T10:44:40.510Z,68.50
2018-03-03T10:47:13.319Z,69.00
2018-03-03T10:49:46.558Z,70.60
2018-03-03T10:52:19.217Z,70.30
2018-03-03T10:54:51.848Z,69.50
2018-03-03T10:57:24.403Z,69.90
2018-03-03T10:59:57.657Z,70.20
2018-03-03T11:02:31.095Z,69.70
2018-03-03T11:05:03.991Z,69.60
2018-03-03T11:07:37.415Z,69.20
2018-03-03T11:10:11.271Z,69.80
2018-03-03T11:12:44.723Z,70.90
2018-03-03T11:15:17.520Z,70.90
2018-03-03T11:17:49.984Z,70.70
2018-03-03T11:20:22.454Z,69.60
2018-03-03T11:22:55.859Z,69.70
2018-03-03T11:25:28.492Z,69.60
2018-03-03T11:28:00.882Z,69.60
2018-03-03T11:30:33.497Z,69.80
2018-03-03T11:33:06.094Z,69.50
2018-03-03T11:35:38.572Z,69.10
2018-03-03T11:38:12.012Z,68.30
2018-03-03T11:40:51.715Z,68.20
2018-03-03T11:43:24.491Z,68.50
2018-03-03T11:45:56.925Z,69.00
2018-03-03T11:48:29.443Z,69.10
2018-03-03T11:51:01.867Z,69.10
2018-03-03T11:53:34.283Z,69.20
2018-03-03T11:56:06.848Z,68.50
2018-03-03T11:58:39.438Z,68.60
2018-03-03T12:01:11.845Z,69.30
2018-03-03T12:03:44.327Z,68.40
2018-03-03T12:06:17.559Z,69.00
2018-03-03T12:08:50.348Z,69.00
2018-03-03T12:11:24.360Z,68.50
2018-03-03T12:13:57.162Z,68.40
2018-03-03T12:16:29.606Z,68.70
2018-03-03T12:19:02.930Z,68.50
2018-03-03T12:21:36.516Z,69.20
2018-03-03T12:24:09.549Z,69.20
2018-03-03T12:26:43.626Z,68.00
2018-03-03T12:29:16.612Z,68.00
2018-03-03T12:31:49.203Z,68.40
2018-03-03T12:34:23.396Z,67.70
2018-03-03T12:36:56.150Z,67.80
2018-03-03T12:39:29.442Z,68.20
2018-03-03T12:42:02.153Z,68.20
2018-03-03T12:44:34.613Z,68.20
2018-03-03T12:47:07.250Z,68.50
2018-03-03T12:49:40.537Z,68.00
2018-03-03T12:52:13.213Z,67.90
2018-03-03T12:54:46.433Z,67.80
2018-03-03T12:57:19.105Z,67.10
2018-03-03T12:59:51.547Z,67.30
2018-03-03T13:02:24.041Z,67.10
2018-03-03T13:04:56.475Z,66.50
2018-03-03T13:07:29.006Z,67.30
2018-03-03T13:10:01.663Z,67.00
2018-03-03T13:12:35.686Z,66.20
2018-03-03T13:15:08.393Z,66.20
2018-03-03T13:17:41.840Z,65.70
2018-03-03T13:20:14.341Z,66.30
2018-03-03T13:22:48.095Z,66.60
2018-03-03T13:25:21.020Z,67.00
2018-03-03T13:27:54.274Z,66.30
2018-03-03T13:30:27.693Z,67.20
2018-03-03T13:33:00.483Z,67.20
2018-03-03T13:35:33.121Z,67.10
2018-03-03T13:38:06.503Z,66.80
2018-03-03T13:40:39.191Z,66.80
2018-03-03T13:43:12.551Z,67.80
2018-03-03T13:45:45.401Z,67.80
2018-03-03T13:48:19.079Z,67.90
2018-03-03T13:50:53.101Z,67.60
2018-03-03T13:53:25.713Z,67.60
2018-03-03T13:55:59.126Z,68.30
2018-03-03T13:58:31.767Z,68.30
2018-03-03T14:01:06.287Z,68.70
2018-03-03T14:03:39.491Z,68.60
2018-03-03T14:06:12.882Z,68.60
2018-03-03T14:08:46.156Z,68.40
2018-03-03T14:11:19.114Z,68.70
2018-03-03T14:13:52.317Z,68.20
2018-03-03T14:16:25.786Z,68.10
2018-03-03T14:18:58.523Z,68.10
2018-03-03T14:21:31.811Z,68.40
2018-03-03T14:24:05.124Z,68.70
2018-03-03T14:26:38.049Z,68.70
2018-03-03T14:29:11.539Z,69.00
2018-03-03T14:31:46.373Z,69.00
2018-03-03T14:34:19.034Z,69.00
2018-03-03T14:36:51.697Z,69.00
2018-03-03T14:39:25.062Z,69.40
2018-03-03T14:41:57.591Z,68.50
2018-03-03T14:44:30.168Z,69.10
2018-03-03T14:47:05.014Z,68.90
2018-03-03T14:49:38.672Z,69.30
2018-03-03T14:52:11.597Z,69.30
2018-03-03T14:54:44.954Z,69.40
2018-03-03T14:57:24.219Z,69.40
2018-03-03T15:00:02.113Z,69.40
2018-03-03T15:02:34.795Z,69.50
2018-03-03T15:05:07.976Z,70.30
2018-03-03T15:07:40.801Z,70.30
2018-03-03T15:10:14.084Z,70.70
2018-03-03T15:12:47.554Z,70.70
2018-03-03T15:15:20.331Z,70.50
2018-03-03T15:17:53.828Z,70.60
2018-03-03T15:20:27.260Z,70.60
2018-03-03T15:23:00.118Z,71.10
2018-03-03T15:25:33.354Z,71.10
2018-03-03T15:28:06.309Z,71.00
2018-03-03T15:30:38.994Z,71.00
2018-03-03T15:33:12.373Z,71.00
2018-03-03T15:35:45.704Z,71.00
2018-03-03T15:38:19.031Z,71.00
2018-03-03T15:40:51.777Z,70.90
2018-03-03T15:43:25.076Z,70.90
2018-03-03T15:45:57.564Z,71.30
2018-03-03T15:48:30.365Z,71.40
2018-03-03T15:51:04.486Z,71.90
2018-03-03T15:53:37.499Z,71.90
2018-03-03T15:56:10.013Z,71.90
2018-03-03T15:58:42.753Z,71.80
2018-03-03T16:01:16.058Z,71.90
2018-03-03T16:03:50.001Z,71.60
2018-03-03T16:06:23.179Z,71.60
2018-03-03T16:08:55.587Z,71.70
2018-03-03T16:11:28.209Z,72.10
2018-03-03T16:16:41.081Z,72.20
2018-03-03T16:19:14.495Z,72.60
2018-03-03T16:21:47.069Z,72.50
2018-03-03T16:24:20.703Z,73.10
2018-03-03T16:26:53.903Z,73.30
2018-03-03T16:29:27.176Z,73.30
2018-03-03T16:31:59.891Z,73.20
2018-03-03T16:34:33.281Z,73.20
2018-03-03T16:37:05.725Z,73.40
2018-03-03T16:39:38.175Z,73.60
2018-03-03T16:42:11.442Z,73.70
2018-03-03T16:44:44.762Z,73.60
2018-03-03T16:47:18.163Z,73.50
2018-03-03T16:49:50.932Z,73.40
2018-03-03T16:52:24.140Z,73.70
2018-03-03T16:54:57.675Z,73.60
2018-03-03T16:57:30.536Z,73.60
2018-03-03T17:00:04.687Z,73.70
2018-03-03T17:02:37.393Z,74.10
2018-03-03T17:05:10.059Z,74.10
2018-03-03T17:07:42.454Z,74.00
2018-03-03T17:10:15.258Z,74.00
2018-03-03T17:12:48.540Z,73.80
2018-03-03T17:15:22.083Z,73.70
2018-03-03T17:17:54.768Z,73.90
2018-03-03T17:20:28.056Z,74.00
2018-03-03T17:23:00.788Z,74.00
2018-03-03T17:25:33.982Z,74.00
2018-03-03T17:28:07.410Z,74.00
2018-03-03T17:30:42.079Z,74.00
2018-03-03T17:33:15.810Z,74.00
2018-03-03T17:35:49.798Z,73.90
2018-03-03T17:38:23.099Z,74.00
2018-03-03T17:40:56.623Z,74.00
2018-03-03T17:43:30.985Z,74.10
2018-03-03T17:46:03.902Z,74.10
2018-03-03T17:48:36.436Z,74.10
2018-03-03T17:51:09.691Z,74.10
2018-03-03T17:53:43.302Z,74.10
2018-03-03T17:56:15.903Z,74.10
2018-03-03T17:58:49.297Z,74.20
2018-03-03T18:01:22.082Z,74.20
2018-03-03T18:03:55.108Z,74.30
2018-03-03T18:06:29.121Z,74.30
2018-03-03T18:09:02.133Z,74.20
2018-03-03T18:11:34.676Z,74.10
2018-03-03T18:14:08.911Z,74.20
2018-03-03T18:16:43.314Z,74.20
2018-03-03T18:19:16.499Z,74.20
2018-03-03T18:21:49.628Z,74.30
2018-03-03T18:24:39.119Z,74.30
2018-03-03T18:27:12.991Z,74.40
2018-03-03T18:29:46.303Z,74.60
2018-03-03T18:32:19.016Z,74.50
2018-03-03T18:34:53.243Z,74.70
2018-03-03T18:37:26.733Z,74.70
2018-03-03T18:39:59.870Z,74.70
2018-03-03T18:42:33.658Z,75.00
2018-03-03T18:45:07.601Z,75.00
2018-03-03T18:47:40.195Z,75.20
2018-03-03T18:50:13.535Z,75.80
2018-03-03T18:52:46.641Z,75.20
2018-03-03T18:55:19.683Z,75.20
2018-03-03T18:57:53.312Z,75.30
2018-03-03T19:00:26.807Z,75.30
2018-03-03T19:03:01.468Z,75.10
2018-03-03T19:05:35.894Z,75.20
2018-03-03T19:08:10.230Z,75.20
2018-03-03T19:10:44.210Z,75.00
2018-03-03T19:13:18.619Z,75.50
2018-03-03T19:15:52.886Z,75.50
2018-03-03T19:18:26.673Z,75.50
2018-03-03T19:21:00.176Z,75.50
2018-03-03T19:23:34.220Z,76.40
2018-03-03T19:26:07.054Z,75.90
2018-03-03T19:28:40.361Z,75.90
2018-03-03T19:31:13.348Z,75.90
2018-03-03T19:33:47.602Z,75.70
2018-03-03T19:36:21.141Z,75.70
2018-03-03T19:38:55.038Z,75.70
2018-03-03T19:41:28.682Z,75.70
2018-03-03T19:44:07.704Z,75.70
2018-03-03T19:46:41.776Z,75.90
2018-03-03T19:49:16.279Z,76.40
2018-03-03T19:54:35.815Z,75.70
2018-03-03T19:57:10.188Z,75.80
2018-03-03T19:59:45.377Z,75.90
2018-03-03T20:02:19.870Z,76.00
2018-03-03T20:04:54.688Z,76.10
2018-03-03T20:07:29.054Z,76.00
2018-03-03T20:10:04.338Z,75.90
2018-03-03T20:12:47.093Z,75.80
2018-03-03T20:15:21.472Z,75.90
2018-03-03T20:17:56.628Z,76.00
2018-03-03T20:20:31.485Z,75.90
2018-03-03T20:23:06.582Z,75.90
2018-03-03T20:25:45.032Z,75.70
2018-03-03T20:28:24.820Z,75.60
2018-03-03T20:30:59.537Z,75.70
2018-03-03T20:33:34.487Z,76.10
2018-03-03T20:36:08.471Z,75.90
2018-03-03T20:38:43.049Z,76.00
2018-03-03T20:41:18.514Z,76.00
2018-03-03T20:43:54.705Z,76.00
2018-03-03T20:46:28.944Z,76.00
2018-03-03T20:49:03.057Z,75.70
2018-03-03T20:51:37.774Z,75.70
2018-03-03T20:54:12.142Z,75.80
2018-03-03T20:56:46.643Z,76.00
2018-03-03T20:59:22.172Z,75.80
2018-03-03T21:01:56.929Z,75.80
2018-03-03T21:04:31.247Z,75.80
2018-03-03T21:07:05.856Z,75.50
2018-03-03T21:09:40.166Z,75.70
2018-03-03T21:12:16.345Z,75.70
2018-03-03T21:14:51.844Z,75.30
2018-03-03T21:17:26.691Z,75.30
2018-03-03T21:20:01.270Z,75.20
2018-03-03T21:22:36.425Z,75.10
2018-03-03T21:25:11.736Z,75.00
2018-03-03T21:27:45.887Z,74.90
2018-03-03T21:30:21.006Z,75.20
2018-03-03T21:32:55.664Z,75.10
2018-03-03T21:35:29.895Z,74.90
2018-03-03T21:38:04.358Z,74.90
2018-03-03T21:40:38.852Z,75.20
2018-03-03T21:43:13.252Z,75.20
2018-03-03T21:45:47.555Z,75.30
2018-03-03T21:48:20.703Z,75.40
2018-03-03T21:50:53.982Z,75.70
2018-03-03T21:53:27.559Z,75.50
2018-03-03T21:56:01.346Z,75.60
2018-03-03T21:58:34.798Z,75.60
2018-03-03T22:01:08.370Z,75.50
2018-03-03T22:03:42.463Z,75.80
2018-03-03T22:06:15.947Z,75.80
2018-03-03T22:08:49.415Z,75.80
2018-03-03T22:11:22.607Z,76.10
2018-03-03T22:13:55.630Z,76.20
2018-03-03T22:16:29.004Z,76.10
2018-03-03T22:19:01.888Z,76.30
2018-03-03T22:21:34.384Z,76.60
2018-03-03T22:24:07.846Z,76.70
2018-03-03T22:26:41.161Z,76.30
2018-03-03T22:29:14.543Z,76.50
2018-03-03T22:31:47.764Z,76.40
2018-03-03T22:34:21.421Z,76.50
2018-03-03T22:36:53.901Z,76.50
2018-03-03T22:39:26.321Z,76.50
2018-03-03T22:41:58.785Z,76.60
2018-03-03T22:44:31.336Z,76.60
2018-03-03T22:47:04.764Z,77.10
2018-03-03T22:49:37.427Z,76.90
2018-03-03T22:52:10.760Z,77.00
2018-03-03T22:54:43.623Z,76.80
2018-03-03T22:57:16.111Z,76.90
2018-03-03T22:59:49.291Z,77.00
2018-03-03T23:02:22.058Z,77.00
2018-03-03T23:04:54.727Z,77.10
2018-03-03T23:07:27.242Z,77.30
2018-03-03T23:09:59.635Z,77.40
2018-03-03T23:12:32.898Z,77.50
2018-03-03T23:15:06.315Z,78.20
2018-03-03T23:17:39.087Z,77.50
2018-03-03T23:20:13.141Z,77.90
2018-03-03T23:22:45.787Z,77.90
2018-03-03T23:25:19.038Z,77.90
2018-03-03T23:27:51.689Z,78.20
2018-03-03T23:30:24.259Z,78.30
2018-03-03T23:32:56.840Z,78.30
2018-03-03T23:35:29.433Z,78.40
2018-03-03T23:38:01.975Z,78.80
2018-03-03T23:40:34.394Z,79.10
2018-03-03T23:43:07.139Z,79.00
2018-03-03T23:45:39.551Z,79.10
2018-03-03T23:48:13.574Z,79.30
2018-03-03T23:50:46.467Z,79.30
2018-03-03T23:53:18.840Z,79.40
2018-03-03T23:55:51.363Z,79.80
2018-03-03T23:58:23.973Z,80.00
